createdAt,value
2022-12-16T00:00:32.314Z,19.70
2022-12-16T00:02:05.141Z,20.15
2022-12-16T00:03:38.356Z,19.70
2022-12-16T00:05:10.152Z,19.77
2022-12-16T00:06:41.854Z,20.15
2022-12-16T00:08:13.600Z,19.52
2022-12-16T00:09:45.332Z,20.23
2022-12-16T00:11:17.086Z,22.23
2022-12-16T00:12:48.849Z,21.85
2022-12-16T00:14:20.628Z,21.80
2022-12-16T00:15:52.614Z,21.45
2022-12-16T00:17:25.174Z,21.40
2022-12-16T00:18:56.952Z,20.70
2022-12-16T00:20:28.672Z,21.30
2022-12-16T00:22:00.428Z,19.70
2022-12-16T00:23:33.025Z,19.48
2022-12-16T00:25:05.389Z,19.98
2022-12-16T00:26:37.668Z,19.98
2022-12-16T00:28:11.861Z,20.00
2022-12-16T00:29:43.561Z,19.25
2022-12-16T00:31:15.387Z,20.50
2022-12-16T00:32:47.175Z,21.50
2022-12-16T00:34:18.988Z,20.13
2022-12-16T00:35:51.922Z,20.75
2022-12-16T00:37:23.641Z,21.65
2022-12-16T00:38:55.391Z,21.02
2022-12-16T00:40:27.301Z,21.10
2022-12-16T00:41:59.151Z,20.45
2022-12-16T00:43:31.328Z,19.90
2022-12-16T00:45:04.873Z,19.58
2022-12-16T00:46:36.649Z,19.73
2022-12-16T00:48:08.781Z,19.90
2022-12-16T00:49:40.521Z,19.52
2022-12-16T00:51:12.227Z,19.83
2022-12-16T00:52:44.434Z,18.85
2022-12-16T00:54:16.175Z,19.08
2022-12-16T00:55:48.206Z,18.90
2022-12-16T00:57:19.918Z,19.67
2022-12-16T00:58:51.714Z,19.65
2022-12-16T01:00:24.132Z,20.40
2022-12-16T01:01:56.002Z,18.85
2022-12-16T01:03:28.179Z,20.27
2022-12-16T01:04:59.975Z,19.10
2022-12-16T01:06:31.736Z,18.52
2022-12-16T01:08:03.508Z,19.52
2022-12-16T01:09:35.651Z,19.38
2022-12-16T01:11:07.372Z,20.15
2022-12-16T01:12:39.246Z,18.60
2022-12-16T01:14:11.028Z,19.88
2022-12-16T01:15:42.748Z,18.75
2022-12-16T01:17:14.487Z,20.95
2022-12-16T01:18:46.252Z,20.65
2022-12-16T01:20:18.038Z,20.02
2022-12-16T01:21:49.744Z,19.30
2022-12-16T01:23:22.792Z,22.02
2022-12-16T01:24:54.535Z,20.80
2022-12-16T01:26:27.081Z,20.35
2022-12-16T01:27:58.828Z,19.73
2022-12-16T01:29:30.560Z,20.40
2022-12-16T09:14:16.312Z,24.63
2022-12-16T09:16:06.752Z,23.33
2022-12-16T09:17:57.366Z,23.83
2022-12-16T09:19:47.470Z,24.02
2022-12-16T09:21:37.683Z,23.48
2022-12-16T09:23:27.988Z,24.60
2022-12-16T09:25:20.698Z,24.50
2022-12-16T09:27:10.790Z,25.60
2022-12-16T09:29:01.253Z,24.58
2022-12-16T09:30:51.312Z,24.40
2022-12-16T09:32:42.052Z,24.25
2022-12-16T09:34:32.453Z,17.63
2022-12-16T09:36:23.069Z,23.92
2022-12-16T09:38:13.762Z,23.23
2022-12-16T09:40:04.028Z,21.80
2022-12-16T09:42:01.381Z,22.02
2022-12-16T09:44:14.136Z,24.30
2022-12-16T09:46:10.528Z,21.88
2022-12-16T09:48:20.773Z,22.75
2022-12-16T09:50:13.288Z,21.13
2022-12-16T09:52:04.963Z,21.60
2022-12-16T09:55:52.721Z,20.40
2022-12-16T09:57:48.055Z,20.25
2022-12-16T09:59:47.324Z,21.70
2022-12-16T10:01:39.744Z,22.17
2022-12-16T10:03:49.720Z,21.75
2022-12-16T10:05:49.024Z,21.55
2022-12-16T10:07:41.598Z,22.90
2022-12-16T10:09:43.757Z,20.85
2022-12-16T10:11:47.209Z,22.23
2022-12-16T10:13:56.008Z,21.63
2022-12-16T10:16:04.022Z,20.98
2022-12-16T10:17:59.582Z,23.50
2022-12-16T10:20:08.724Z,23.08
2022-12-16T10:22:18.831Z,23.02
2022-12-16T10:24:19.932Z,22.45
2022-12-16T10:26:26.260Z,16.33
2022-12-16T10:28:45.409Z,20.70
2022-12-16T10:30:43.248Z,21.33
2022-12-16T10:32:56.828Z,21.42
2022-12-16T10:34:51.516Z,21.25
2022-12-16T10:36:43.121Z,21.17
2022-12-16T10:38:41.409Z,23.00
2022-12-16T10:40:38.957Z,23.67
2022-12-16T10:42:50.229Z,23.95
2022-12-16T10:45:14.585Z,23.08
2022-12-16T10:47:04.920Z,23.67
2022-12-16T10:48:56.971Z,24.63
2022-12-16T10:50:48.023Z,23.40
2022-12-16T10:52:38.113Z,22.48
2022-12-16T10:54:48.237Z,22.90
2022-12-16T10:56:53.913Z,23.02
2022-12-16T10:59:12.096Z,22.95
2022-12-16T11:01:04.873Z,22.25
2022-12-16T11:02:55.455Z,23.25
2022-12-16T11:04:49.913Z,24.60
2022-12-16T11:06:57.627Z,24.30
2022-12-16T11:08:47.778Z,23.52
2022-12-16T11:10:48.937Z,23.90
2022-12-16T11:12:47.145Z,22.90
2022-12-16T11:15:12.469Z,23.58
2022-12-16T11:16:58.482Z,21.92
2022-12-16T11:18:48.910Z,23.08
2022-12-16T11:20:42.246Z,22.80
2022-12-16T11:22:38.180Z,23.20
2022-12-16T11:24:28.478Z,22.88
2022-12-16T11:26:24.770Z,24.48
2022-12-16T11:33:12.838Z,27.02
2022-12-16T11:35:08.811Z,24.60
2022-12-16T11:37:00.875Z,25.70
2022-12-16T11:39:07.589Z,27.90
2022-12-16T11:40:58.249Z,25.60
2022-12-16T11:42:51.190Z,25.83
2022-12-16T11:44:47.723Z,26.95
2022-12-16T11:46:45.017Z,28.77
2022-12-16T11:49:02.568Z,26.67
2022-12-16T11:50:56.762Z,26.48
2022-12-16T11:52:47.311Z,26.08
2022-12-16T11:55:12.268Z,25.27
2022-12-16T11:57:04.793Z,26.17
2022-12-16T11:59:11.505Z,26.15
2022-12-16T12:01:12.984Z,24.02
2022-12-16T12:03:11.506Z,23.42
2022-12-16T12:05:02.298Z,23.45
2022-12-16T12:07:09.495Z,25.67
2022-12-16T12:09:28.134Z,23.60
2022-12-16T12:11:27.836Z,25.98
2022-12-16T12:13:46.893Z,25.23
2022-12-16T12:15:46.388Z,24.17
2022-12-16T12:17:36.648Z,25.95
2022-12-16T12:19:39.313Z,25.25
2022-12-16T12:21:45.270Z,23.85
2022-12-16T12:23:59.457Z,24.50
2022-12-16T12:26:13.210Z,24.63
2022-12-16T12:28:14.341Z,23.45
2022-12-16T12:30:33.862Z,23.42
2022-12-16T12:32:45.745Z,22.73
